Teruhou Maru No.22 — JD3202 — position and weather

sailwx.info

Track history (hours):
 
Tides and Currents Weather Stations Pressure Air Temp Water Temp Dewpoint Dewpoint Depression Visibility Wind Speed Wind Dir Waves Ship Positions

Teruhou Maru No.22

Last reported at 2017-Jun-22 05:10 UTC. Time now 2017-Jun-26 03:51 UTC.
Position N 34°02' E 135°02'.

Length 76 m; draft 5 m.

Type: Cargo ship. MMSI: 431002552.

Date/timePositionNaut miles runAvg speedWind from/ knotsBaromVisibWave heightAir tempDewpointWater temp
2017-Jun-22 05:10N 34°02' E 135°02'211.1
2017-Jun-22 05:00N 34°04' E 135°02'611.4
2017-Jun-22 04:30N 34°09' E 135°03'611.6
2017-Jun-22 04:00N 34°15' E 135°03'911.8
2017-Jun-22 03:15N 34°22' E 135°10'1 0.1
2017-Jun-21 21:55N 34°22' E 135°11'0 0.0
2017-Jun-21 21:28N 34°22' E 135°11'0 0.0
2017-Jun-21 20:55N 34°22' E 135°11'0 0.0
2017-Jun-21 20:28N 34°22' E 135°11'0 0.0
2017-Jun-21 18:49N 34°22' E 135°11'0 0.0
2017-Jun-21 13:37N 34°22' E 135°11'0 0.0
2017-Jun-21 13:25N 34°22' E 135°11'0 0.0
2017-Jun-21 12:55N 34°22' E 135°11'0 0.0
2017-Jun-21 00:43N 34°22' E 135°11'0 0.0
2017-Jun-21 00:22N 34°22' E 135°11'0 0.0
2017-Jun-20 12:06N 34°22' E 135°11'0 3.7
2017-Jun-20 12:00N 34°23' E 135°10'611.9
2017-Jun-20 11:30N 34°28' E 135°07'611.5
2017-Jun-20 11:00N 34°33' E 135°04'1410.0
2017-Jun-20 09:35N 34°41' E 134°50'5 0.2
2017-Jun-19 07:49N 34°37' E 134°54'614.1
2017-Jun-19 07:22N 34°37' E 135°02'412.6
2017-Jun-19 07:00N 34°36' E 135°07'612.3
2017-Jun-19 06:30N 34°37' E 135°15'612.2
2017-Jun-19 06:00N 34°38' E 135°22'4 7.8
2017-Jun-19 05:30N 34°40' E 135°25'0 0.0
2017-Jun-19 04:50N 34°40' E 135°25'0 0.0
2017-Jun-19 04:26N 34°40' E 135°25'0 0.0
2017-Jun-19 03:56N 34°40' E 135°25'0 0.0
2017-Jun-19 03:26N 34°40' E 135°25'0 0.0
2017-Jun-19 02:50N 34°40' E 135°25'0 0.0
2017-Jun-19 02:26N 34°40' E 135°25'0 0.0
2017-Jun-19 01:56N 34°40' E 135°25'0 0.0
2017-Jun-19 01:14N 34°40' E 135°25'0 0.0
2017-Jun-19 00:38N 34°40' E 135°25'0 0.0
2017-Jun-19 00:26N 34°40' E 135°25'0 0.0
2017-Jun-18 23:56N 34°40' E 135°25'1 1.6
2017-Jun-18 23:30N 34°40' E 135°25'4 7.6
2017-Jun-18 23:00N 34°39' E 135°21'0 0.0
2017-Jun-18 22:29N 34°39' E 135°21'0 0.0
2017-Jun-18 21:59N 34°39' E 135°21'0 0.0
2017-Jun-18 21:29N 34°39' E 135°21'0 0.0
2017-Jun-18 20:59N 34°39' E 135°21'0 0.0
2017-Jun-18 20:29N 34°39' E 135°21'0 0.0
2017-Jun-18 19:59N 34°39' E 135°21'0 0.0
2017-Jun-18 19:23N 34°39' E 135°21'0 0.0
2017-Jun-18 18:59N 34°39' E 135°21'0 0.0
2017-Jun-18 18:29N 34°39' E 135°21'0 0.0
2017-Jun-18 17:59N 34°39' E 135°21'0 0.0
2017-Jun-18 17:29N 34°39' E 135°21'0 0.0
2017-Jun-18 16:59N 34°39' E 135°21'0 0.0
2017-Jun-18 16:29N 34°39' E 135°21'0 0.0
2017-Jun-18 15:53N 34°39' E 135°21'0 0.1
2017-Jun-18 15:17N 34°39' E 135°21'1 4.0
2017-Jun-18 15:00N 34°38' E 135°19'1212.0
2017-Jun-18 14:00N 34°35' E 135°05'712.8
2017-Jun-18 13:25N 34°36' E 134°57'5 0.3
2017-Jun-17 21:16N 34°38' E 134°52'310.6
2017-Jun-17 20:59N 34°37' E 134°55'611.7
2017-Jun-17 20:28N 34°36' E 135°03'510.6
2017-Jun-17 20:00N 34°32' E 135°05'912.7
2017-Jun-17 19:17N 34°23' E 135°02'17 0.4
2017-Jun-16 04:15N 34°06' E 135°00'312.9
2017-Jun-16 04:00N 34°09' E 135°00'2012.2
2017-Jun-16 02:23N 34°28' E 135°02'411.9
2017-Jun-16 02:00N 34°33' E 135°03'9 0.2
2017-Jun-13 22:52N 34°37' E 134°54'512.4
2017-Jun-13 22:26N 34°38' E 135°01'510.3
2017-Jun-13 22:00N 34°35' E 135°05'612.2
2017-Jun-13 21:28N 34°29' E 135°04'  
Track history (hours):
 
Tides and Currents Weather Stations Pressure Air Temp Water Temp Dewpoint Dewpoint Depression Visibility Wind Speed Wind Dir Waves Ship Positions

Teruhou Maru No.22

Last reported at 2017-Jun-22 05:10 UTC. Time now 2017-Jun-26 03:51 UTC.
Position N 34°02' E 135°02'.

Length 76 m; draft 5 m.

Type: Cargo ship. MMSI: 431002552.

Date/timePositionNaut miles runAvg speedWind from/ knotsBaromVisibWave heightAir tempDewpointWater temp
2017-Jun-22 05:10N 34°02' E 135°02'211.1
2017-Jun-22 05:00N 34°04' E 135°02'611.4
2017-Jun-22 04:30N 34°09' E 135°03'611.6
2017-Jun-22 04:00N 34°15' E 135°03'911.8
2017-Jun-22 03:15N 34°22' E 135°10'1 0.1
2017-Jun-21 21:55N 34°22' E 135°11'0 0.0
2017-Jun-21 21:28N 34°22' E 135°11'0 0.0
2017-Jun-21 20:55N 34°22' E 135°11'0 0.0
2017-Jun-21 20:28N 34°22' E 135°11'0 0.0
2017-Jun-21 18:49N 34°22' E 135°11'0 0.0
2017-Jun-21 13:37N 34°22' E 135°11'0 0.0
2017-Jun-21 13:25N 34°22' E 135°11'0 0.0
2017-Jun-21 12:55N 34°22' E 135°11'0 0.0
2017-Jun-21 00:43N 34°22' E 135°11'0 0.0
2017-Jun-21 00:22N 34°22' E 135°11'0 0.0
2017-Jun-20 12:06N 34°22' E 135°11'0 3.7
2017-Jun-20 12:00N 34°23' E 135°10'611.9
2017-Jun-20 11:30N 34°28' E 135°07'611.5
2017-Jun-20 11:00N 34°33' E 135°04'1410.0
2017-Jun-20 09:35N 34°41' E 134°50'5 0.2
2017-Jun-19 07:49N 34°37' E 134°54'614.1
2017-Jun-19 07:22N 34°37' E 135°02'412.6
2017-Jun-19 07:00N 34°36' E 135°07'612.3
2017-Jun-19 06:30N 34°37' E 135°15'612.2
2017-Jun-19 06:00N 34°38' E 135°22'4 7.8
2017-Jun-19 05:30N 34°40' E 135°25'0 0.0
2017-Jun-19 04:50N 34°40' E 135°25'0 0.0
2017-Jun-19 04:26N 34°40' E 135°25'0 0.0
2017-Jun-19 03:56N 34°40' E 135°25'0 0.0
2017-Jun-19 03:26N 34°40' E 135°25'0 0.0
2017-Jun-19 02:50N 34°40' E 135°25'0 0.0
2017-Jun-19 02:26N 34°40' E 135°25'0 0.0
2017-Jun-19 01:56N 34°40' E 135°25'0 0.0
2017-Jun-19 01:14N 34°40' E 135°25'0 0.0
2017-Jun-19 00:38N 34°40' E 135°25'0 0.0
2017-Jun-19 00:26N 34°40' E 135°25'0 0.0
2017-Jun-18 23:56N 34°40' E 135°25'1 1.6
2017-Jun-18 23:30N 34°40' E 135°25'4 7.6
2017-Jun-18 23:00N 34°39' E 135°21'0 0.0
2017-Jun-18 22:29N 34°39' E 135°21'0 0.0
2017-Jun-18 21:59N 34°39' E 135°21'0 0.0
2017-Jun-18 21:29N 34°39' E 135°21'0 0.0
2017-Jun-18 20:59N 34°39' E 135°21'0 0.0
2017-Jun-18 20:29N 34°39' E 135°21'0 0.0
2017-Jun-18 19:59N 34°39' E 135°21'0 0.0
2017-Jun-18 19:23N 34°39' E 135°21'0 0.0
2017-Jun-18 18:59N 34°39' E 135°21'0 0.0
2017-Jun-18 18:29N 34°39' E 135°21'0 0.0
2017-Jun-18 17:59N 34°39' E 135°21'0 0.0
2017-Jun-18 17:29N 34°39' E 135°21'0 0.0
2017-Jun-18 16:59N 34°39' E 135°21'0 0.0
2017-Jun-18 16:29N 34°39' E 135°21'0 0.0
2017-Jun-18 15:53N 34°39' E 135°21'0 0.1
2017-Jun-18 15:17N 34°39' E 135°21'1 4.0
2017-Jun-18 15:00N 34°38' E 135°19'1212.0
2017-Jun-18 14:00N 34°35' E 135°05'712.8
2017-Jun-18 13:25N 34°36' E 134°57'5 0.3
2017-Jun-17 21:16N 34°38' E 134°52'310.6
2017-Jun-17 20:59N 34°37' E 134°55'611.7
2017-Jun-17 20:28N 34°36' E 135°03'510.6
2017-Jun-17 20:00N 34°32' E 135°05'912.7
2017-Jun-17 19:17N 34°23' E 135°02'17 0.4
2017-Jun-16 04:15N 34°06' E 135°00'312.9
2017-Jun-16 04:00N 34°09' E 135°00'2012.2
2017-Jun-16 02:23N 34°28' E 135°02'411.9
2017-Jun-16 02:00N 34°33' E 135°03'9 0.2
2017-Jun-13 22:52N 34°37' E 134°54'512.4
2017-Jun-13 22:26N 34°38' E 135°01'510.3
2017-Jun-13 22:00N 34°35' E 135°05'612.2
2017-Jun-13 21:28N 34°29' E 135°04'  

Dump ship's entire track history